CheckWX is a tool to help pilots better visualize weather data.  It is not intended as a substitute for an official pre-flight weather briefing.

18:17:06 UTC

KHAI METAR
Three Rivers Municipal Dr Haines Airport
Three Rivers, Michigan, USA
Current

22 mins ago

KHAI 171755Z AUTO 08009KT 10SM BKN018 OVC041 M03/M06 A2989 RMK AO2 T10281063 11028 21043
Observed
Feb-17 @ 17:55 UTC
Wind
  • 080° at 9 KTS
Visibility
10 SM
Flight Rules
MVFR
Cloud Levels
  • Broken at 1,800' AGL
  • Overcast at 4,100' AGL
Temperature
-3°C / 27°F
Dewpoint
-6°C / 21°F
Humidity
80%
Altimeter
29.89" Hg
Pressure
1012.22 hPa
Previous

41 mins ago

KHAI 171736Z AUTO 09008KT 5SM -SN BKN016 OVC021 M03/M06 A2989 RMK AO2 T10301061
Observed
Feb-17 @ 17:36 UTC
Wind
  • 090° at 8 KTS
Visibility
5 SM
Flight Rules
MVFR
Conditions
Light Snow
Cloud Levels
  • Broken at 1,600' AGL
  • Overcast at 2,100' AGL
Temperature
-3°C / 27°F
Dewpoint
-6°C / 21°F
Humidity
80%
Altimeter
29.89" Hg
Pressure
1012.22 hPa
Previous

1 hour ago

KHAI 171716Z AUTO 10008KT 2 1/2SM -SN OVC019 M03/M06 A2989 RMK AO2 T10301065
Observed
Feb-17 @ 17:16 UTC
Wind
  • 100° at 8 KTS
Visibility
2 1/2 SM
Flight Rules
IFR
Conditions
Light Snow
Cloud Levels
  • Overcast at 1,900' AGL
Temperature
-3°C / 27°F
Dewpoint
-7°C / 19°F
Humidity
74%
Altimeter
29.89" Hg
Pressure
1012.22 hPa